Flight Track Log - Related Links

Times and Time Zones

All times are in EDT time to prevent confusion due to time zone crossing. See the EJA102 flight status page for this flight to view local times or setup timezone preferences in your user account.

Time Position Orientation Groundspeed Altitude Reporting Facility
EDT Latitude Longitude Course Direction KTS MPH feet Rate Location/Type
Fri 04:28:04 PM 39.0000 -77.5167 113° Southeast 205 236 3,900  Level Potomac TRACON
Fri 04:29:04 PM 39.0500 -77.5167 360° North 251 289 7,000 2,661 Climbing Potomac TRACON
Fri 04:29:59 PM 39.1167 -77.4833 21° North 247 284 9,000 1,140 Climbing Potomac TRACON
Fri 04:31:05 PM 39.1667 -77.4167 46° Northeast 276 318 9,300 761 Climbing Potomac TRACON
Fri 04:33:00 PM 39.2850 -76.8716 113° Southeast  Level FlightAware Approximate
Fri 04:33:24 PM 39.2717 -77.1894 59° Northeast 303 349 11,600  Level Washington Center
Fri 04:34:25 PM 39.3189 -77.0778 61° Northeast 328 377 13,400 1,835 Climbing Washington Center
Fri 04:35:25 PM 39.3122 -76.9489 94° East 343 395 15,300 1,835 Climbing Washington Center
Fri 04:36:26 PM 39.2697 -76.8167 113° Southeast 356 410 17,100 1,736 Climbing Washington Center
Fri 04:37:26 PM 39.2314 -76.6875 111° Southeast 369 425 18,800 1,780 Climbing Washington Center
Fri 04:38:24 PM 39.1908 -76.5611 112° Southeast 379 436 20,600 1,109 Climbing Washington Center
Fri 04:39:25 PM 39.1481 -76.4267 112° Southeast 384 442 21,000 198 Climbing Washington Center
Fri 04:40:25 PM 39.1053 -76.2844 111° Southeast 407 468 21,000  Level Washington Center
Fri 04:41:26 PM 39.0683 -76.1478 109° East 426 490 21,000  Level Washington Center
Fri 04:42:27 PM 39.0461 -75.9953 101° East 431 496 21,000  Level Washington Center
Fri 04:43:24 PM 39.0547 -75.8294 86° East 425 489 21,000  Level Washington Center
Fri 04:44:26 PM 39.0614 -75.6825 87° East 419 482 21,000  Level Washington Center
Fri 04:45:26 PM 39.0675 -75.5381 87° East 414 476 21,000  Level Washington Center
Fri 04:46:24 PM 39.0714 -75.3911 88° East 414 476 21,000  Level Washington Center
Fri 04:47:25 PM 39.0794 -75.2414 86° East 409 471 21,000 -50 Level Washington Center
Fri 04:48:25 PM 39.0831 -75.1050 88° East 399 459 20,900  Descending Washington Center
Fri 04:49:26 PM 39.0889 -74.9844 86° East 364 419 21,000 50 Climbing Washington Center
Fri 04:50:26 PM 39.0944 -74.8642 87° East 342 394 21,000  Level Washington Center
Fri 04:51:24 PM 39.0978 -74.7383 88° East 342 394 21,000  Level Washington Center
Fri 04:52:24 PM 39.1031 -74.6153 87° East 342 394 21,000  Level Washington Center
Fri 04:54:54 PM 39.2744 -74.3833 46° Northeast 362 417 21,000  Level New York Center
Fri 04:55:55 PM 39.3583 -74.3017 37° Northeast 372 428 21,000  Level New York Center
Fri 04:56:55 PM 39.4464 -74.2147 37° Northeast 385 443 21,000  Level New York Center
Fri 04:57:53 PM 39.5322 -74.1247 39° Northeast 391 450 21,000 -508 Level New York Center
Fri 04:58:53 PM 39.6022 -74.0147 50° Northeast 391 450 20,000 -1,438 Descending New York Center
Fri 04:59:54 PM 39.6761 -73.9022 50° Northeast 374 430 18,100 -1,623 Descending New York Center
Fri 05:00:55 PM 39.7411 -73.8025 50° Northeast 363 418 16,700 -1,339 Descending New York Center
Fri 05:01:55 PM 39.8017 -73.7214 46° Northeast 350 403 15,400 -1,424 Descending New York Center
Fri 05:02:53 PM 39.8683 -73.6378 44° Northeast 336 387 13,900 -1,220 Descending New York Center
Fri 05:03:53 PM 39.9350 -73.5567 43° Northeast 330 380 13,000 -446 Descending New York Center
Fri 05:04:54 PM 40.0119 -73.4675 42° Northeast 331 381 13,000 -867 Level New York Center
Fri 05:06:39 PM 40.0717 -73.2725 68° East 327 376 10,600 -1,418 Descending Boston Center
Fri 05:07:39 PM 40.1203 -73.2025 48° Northeast 292 336 9,100 -800 Descending Boston Center
Fri 05:08:39 PM 40.1747 -73.1433 40° Northeast 256 295 9,000 -50 Descending Boston Center
Fri 05:09:39 PM 40.2272 -73.0842 41° Northeast 244 281 9,000  Level Boston Center
Fri 05:10:39 PM 40.2775 -73.0275 41° Northeast 239 275 9,000 -150 Level Boston Center
Fri 05:11:39 PM 40.3278 -72.9736 39° Northeast 234 269 8,700 -580 Descending Boston Center
Fri 05:14:06 PM 40.4667 -72.8167 41° Northeast 252 290 7,000 -507 Descending New York TRACON
Fri 05:15:00 PM 40.5000 -72.7833 37° Northeast 242 278 7,000  Level New York TRACON
Fri 05:16:00 PM 40.5667 -72.7167 37° Northeast 255 293 7,000 -450 Level New York TRACON
Fri 05:17:00 PM 40.6167 -72.6500 45° Northeast 246 283 6,100 -1,200 Descending New York TRACON
Fri 05:18:00 PM 40.6667 -72.6000 37° Northeast 239 275 4,600 -1,200 Descending New York TRACON
Fri 05:19:00 PM 40.7167 -72.5500 37° Northeast 241 277 3,700 -1,100 Descending New York TRACON
Fri 05:20:00 PM 40.7667 -72.4833 45° Northeast 243 280 2,400 -850 Descending New York TRACON
Fri 05:21:00 PM 40.8167 -72.4333 37° Northeast 256 295 2,000 -200 Descending New York TRACON
Fri 05:22:00 PM 40.8667 -72.3667 45° Northeast 245 282 2,000  Level New York TRACON
Fri 05:23:00 PM 40.9000 -72.3000 57° Northeast 237 273 2,000  Level New York TRACON

Login

Don't have an account? Register now (free) for customized features, flight alerts, and more!